createdAt,value
2022-08-26T00:03:03.000Z,90.0
2022-08-26T00:33:07.000Z,90.0
2022-08-26T01:03:10.000Z,92.0
2022-08-26T01:33:20.000Z,92.0
2022-08-26T02:03:21.000Z,92.0
2022-08-26T02:33:23.000Z,93.0
2022-08-26T03:03:26.567Z,93
2022-08-26T03:33:28.000Z,93.0
2022-08-26T04:03:32.000Z,93.0
2022-08-26T04:33:35.070Z,93
2022-08-26T05:03:45.000Z,94.0
2022-08-26T05:33:47.128Z,95
2022-08-26T06:03:48.000Z,95.0
2022-08-26T06:33:49.000Z,95.0
2022-08-26T07:03:50.000Z,95.0
2022-08-26T07:33:54.403Z,87
2022-08-26T08:04:03.000Z,73.0
2022-08-26T08:34:07.000Z,66.0
2022-08-26T09:04:08.000Z,54.0
2022-08-26T09:34:12.325Z,53
2022-08-26T10:04:20.000Z,50.0
2022-08-26T10:34:25.000Z,46.0
2022-08-26T11:04:28.000Z,38.0
2022-08-26T11:34:34.000Z,43.0
2022-08-26T11:37:32.000Z,46.0
2022-08-26T12:07:35.000Z,43.0
2022-08-26T12:37:37.000Z,51.0
2022-08-26T13:07:50.000Z,50.0
2022-08-26T13:37:54.000Z,46.0
2022-08-26T14:08:05.000Z,50.0
2022-08-26T14:38:05.000Z,49.0
2022-08-26T15:08:11.000Z,51.0
2022-08-26T15:38:22.000Z,50.0
2022-08-26T16:08:26.000Z,54.0
2022-08-26T16:38:29.129Z,57
2022-08-26T17:08:31.000Z,59.0
2022-08-26T17:38:34.000Z,66.0
2022-08-26T18:08:37.000Z,69.0
2022-08-26T18:38:38.000Z,73.0
2022-08-26T19:08:39.000Z,77.0
2022-08-26T19:38:52.000Z,80.0
2022-08-26T20:08:55.000Z,81.0
2022-08-26T20:39:07.000Z,80.0
2022-08-26T21:09:07.000Z,82.0
2022-08-26T21:39:09.000Z,84.0
2022-08-26T22:09:18.000Z,85.0
2022-08-26T22:39:21.000Z,86.0
2022-08-26T23:09:24.000Z,85.0
2022-08-26T23:39:26.000Z,85.0
